createdAt,value
2022-10-11T00:02:02.483Z,98974.00
2022-10-11T00:04:29.057Z,98973.63
2022-10-11T00:06:55.750Z,98968.28
2022-10-11T00:09:22.517Z,98962.22
2022-10-11T00:11:49.169Z,98958.34
2022-10-11T00:14:16.004Z,98965.31
2022-10-11T00:16:44.480Z,98967.91
2022-10-11T00:19:11.602Z,98965.31
2022-10-11T00:21:38.741Z,98944.16
2022-10-11T00:24:06.055Z,98968.28
2022-10-11T00:26:33.427Z,98959.06
2022-10-11T00:29:00.043Z,98946.16
2022-10-11T00:31:26.773Z,98968.19
2022-10-11T00:33:54.615Z,98963.84
2022-10-11T00:36:22.442Z,98966.41
2022-10-11T00:38:49.153Z,98962.56
2022-10-11T00:41:16.798Z,98962.94
2022-10-11T00:43:44.230Z,98960.53
2022-10-11T00:46:13.585Z,98955.75
2022-10-11T00:48:41.528Z,98963.41
2022-10-11T00:51:20.399Z,98972.25
2022-10-11T00:53:50.746Z,98959.25
2022-10-11T00:56:23.735Z,98964.69
2022-10-11T00:58:50.804Z,98971.16
2022-10-11T01:01:17.610Z,98969.75
2022-10-11T01:03:45.022Z,98969.66
2022-10-11T01:06:11.621Z,98965.31
2022-10-11T01:08:38.814Z,98962.84
2022-10-11T01:11:06.500Z,98957.19
2022-10-11T01:13:57.993Z,98957.88
2022-10-11T01:16:35.920Z,98964.59
2022-10-11T01:19:13.119Z,98960.16
2022-10-11T01:22:22.532Z,98953.72
2022-10-11T01:25:02.202Z,98954.81
2022-10-11T01:27:44.834Z,98957.03
2022-10-11T01:30:36.794Z,98951.03
2022-10-11T01:33:29.532Z,98956.84
2022-10-11T01:36:11.771Z,98948.66
2022-10-11T01:38:47.048Z,98943.97
2022-10-11T01:41:25.796Z,98938.41
2022-10-11T01:43:57.602Z,98944.50
2022-10-11T01:46:25.167Z,98937.69
2022-10-11T01:48:56.262Z,98935.56
2022-10-11T01:51:26.817Z,98935.84
2022-10-11T01:54:18.401Z,98932.25
2022-10-11T01:56:44.953Z,98939.81
2022-10-11T01:59:11.499Z,98944.69
2022-10-11T02:02:02.619Z,98941.09
2022-10-11T02:04:44.827Z,98941.09
2022-10-11T02:07:25.334Z,98934.47
2022-10-11T02:10:27.354Z,98942.91
2022-10-11T02:13:01.934Z,98931.88
2022-10-11T02:15:31.430Z,98937.22
2022-10-11T02:18:02.315Z,98941.44
2022-10-11T02:20:32.174Z,98933.59
2022-10-11T02:23:08.189Z,98929.94
2022-10-11T02:25:36.376Z,98931.59
2022-10-11T02:28:12.627Z,98921.84
2022-10-11T02:30:42.008Z,98925.06
2022-10-11T02:33:13.357Z,98922.47
2022-10-11T02:35:47.360Z,98922.03
2022-10-11T02:38:39.304Z,98918.69
2022-10-11T02:41:15.879Z,98915.75
2022-10-11T02:43:51.885Z,98921.00
2022-10-11T02:46:18.732Z,98912.06
2022-10-11T02:48:45.284Z,98908.84
2022-10-11T02:51:14.132Z,98905.72
2022-10-11T02:53:40.710Z,98904.50
2022-10-11T02:56:07.998Z,98905.53
2022-10-11T02:58:34.957Z,98906.53
2022-10-11T03:01:01.745Z,98905.63
2022-10-11T03:03:28.358Z,98910.78
2022-10-11T03:06:00.338Z,98913.34
2022-10-11T03:08:27.180Z,98911.59
2022-10-11T03:10:53.807Z,98913.44
2022-10-11T03:13:20.794Z,98909.84
2022-10-11T03:16:02.337Z,98908.66
2022-10-11T03:18:30.962Z,98915.03
2022-10-11T03:20:57.670Z,98915.56
2022-10-11T03:23:24.296Z,98913.63
2022-10-11T03:25:52.082Z,98905.34
2022-10-11T03:28:19.515Z,98905.91
2022-10-11T03:30:50.362Z,98907.81
2022-10-11T03:33:17.614Z,98908.38
2022-10-11T03:35:48.267Z,98909.94
2022-10-11T03:38:18.428Z,98914.91
2022-10-11T03:40:45.048Z,98910.19
2022-10-11T03:43:12.162Z,98912.25
2022-10-11T03:45:39.014Z,98912.34
2022-10-11T03:48:05.850Z,98926.88
2022-10-11T03:50:32.435Z,98917.00
2022-10-11T03:52:59.125Z,98916.34
2022-10-11T03:55:26.075Z,98914.81
2022-10-11T03:57:52.701Z,98920.06
2022-10-11T04:00:20.244Z,98914.41
2022-10-11T04:02:46.883Z,98924.63
2022-10-11T04:05:13.831Z,98920.94
2022-10-11T04:07:41.227Z,98921.66
2022-10-11T04:10:08.285Z,98924.44
2022-10-11T04:12:36.607Z,98909.06
2022-10-11T04:15:03.460Z,98916.97
2022-10-11T04:17:30.050Z,98913.72
2022-10-11T04:19:56.709Z,98924.03
2022-10-11T04:22:23.408Z,98921.28
2022-10-11T04:24:50.072Z,98915.69
2022-10-11T04:27:16.639Z,98924.63
2022-10-11T04:29:43.371Z,98916.41
2022-10-11T04:32:09.909Z,98925.03
2022-10-11T04:34:36.570Z,98913.44
2022-10-11T04:37:03.151Z,98918.13
2022-10-11T04:39:29.873Z,98917.41
2022-10-11T04:41:56.506Z,98920.06
2022-10-11T04:44:23.194Z,98923.88
2022-10-11T04:46:49.721Z,98913.16
2022-10-11T04:49:16.383Z,98920.66
2022-10-11T04:51:43.143Z,98921.28
2022-10-11T04:54:09.803Z,98915.66
2022-10-11T04:56:36.374Z,98927.84
2022-10-11T04:59:03.103Z,98920.03
2022-10-11T05:01:29.658Z,98930.00
2022-10-11T05:03:56.367Z,98930.66
2022-10-11T05:06:23.000Z,98928.91
2022-10-11T05:08:49.655Z,98930.31
2022-10-11T05:11:17.037Z,98927.81
2022-10-11T05:13:45.219Z,98937.31
2022-10-11T05:16:13.308Z,98930.88
2022-10-11T05:18:40.685Z,98920.47
2022-10-11T05:21:14.978Z,98929.13
2022-10-11T05:23:42.330Z,98928.31
2022-10-11T05:26:09.357Z,98933.56
2022-10-11T05:28:36.557Z,98928.59
2022-10-11T05:31:03.769Z,98931.78
2022-10-11T05:33:31.078Z,98926.81
2022-10-11T05:35:57.758Z,98928.91
2022-10-11T05:38:24.370Z,98925.59
2022-10-11T05:40:51.228Z,98923.22
2022-10-11T05:43:18.412Z,98924.84
2022-10-11T05:45:46.433Z,98924.84
2022-10-11T05:48:13.095Z,98929.75
2022-10-11T05:50:39.862Z,98924.84
2022-10-11T05:53:06.882Z,98935.56
2022-10-11T05:55:42.095Z,98936.81
2022-10-11T05:58:12.791Z,98930.34
2022-10-11T06:00:39.483Z,98922.56
2022-10-11T06:03:07.908Z,98932.38
2022-10-11T06:05:35.773Z,98935.03
2022-10-11T06:08:06.402Z,98937.69
2022-10-11T06:10:33.496Z,98942.75
2022-10-11T06:13:00.378Z,98945.00
2022-10-11T06:15:27.524Z,98941.66
2022-10-11T06:17:54.205Z,98943.91
2022-10-11T06:20:20.882Z,98954.78
2022-10-11T06:22:47.445Z,98957.84
2022-10-11T06:25:14.208Z,98951.75
2022-10-11T06:27:40.818Z,98948.47
2022-10-11T06:30:08.302Z,98952.09
2022-10-11T06:32:35.105Z,98961.69
2022-10-11T06:35:03.375Z,98962.06
2022-10-11T06:37:30.420Z,98953.69
2022-10-11T06:39:57.125Z,98961.88
2022-10-11T06:42:23.689Z,98961.00
2022-10-11T06:44:50.319Z,98964.66
2022-10-11T06:47:16.933Z,98959.25
2022-10-11T06:49:43.580Z,98965.22
2022-10-11T06:52:10.215Z,98968.38
2022-10-11T06:54:40.069Z,98968.38
2022-10-11T06:57:10.080Z,98978.69
2022-10-11T06:59:36.721Z,98976.69
2022-10-11T07:02:03.438Z,98975.19
2022-10-11T07:04:30.187Z,98966.06
2022-10-11T07:06:57.016Z,98980.81
2022-10-11T07:09:23.705Z,98985.72
2022-10-11T07:11:50.390Z,98987.44
2022-10-11T07:14:17.002Z,98988.94
2022-10-11T07:16:43.636Z,98991.50
2022-10-11T07:19:10.419Z,98997.59
2022-10-11T07:21:37.165Z,99007.91
2022-10-11T07:24:04.018Z,98998.25
2022-10-11T07:26:37.455Z,99000.56
2022-10-11T07:29:06.815Z,98998.06
2022-10-11T07:31:33.339Z,98998.72
2022-10-11T07:34:00.084Z,98978.06
2022-10-11T07:36:26.737Z,98991.09
2022-10-11T07:38:53.423Z,98996.88
2022-10-11T07:41:20.578Z,98996.63
2022-10-11T07:43:49.519Z,99004.00
2022-10-11T07:46:17.284Z,99006.50
2022-10-11T07:48:43.988Z,99001.25
2022-10-11T07:51:17.041Z,99007.16
2022-10-11T07:53:48.956Z,98998.47
2022-10-11T07:56:21.906Z,99012.13
2022-10-11T07:58:54.183Z,99004.38
2022-10-11T08:01:21.682Z,99005.22
2022-10-11T08:03:49.604Z,99000.06
2022-10-11T08:06:20.526Z,99005.88
2022-10-11T08:08:47.748Z,99007.34
2022-10-11T08:11:26.510Z,99010.84
2022-10-11T08:13:53.662Z,99006.22
2022-10-11T08:16:21.274Z,99004.50
2022-10-11T08:18:48.094Z,99001.44
2022-10-11T08:21:17.688Z,98998.88
2022-10-11T08:23:44.756Z,98996.84
2022-10-11T08:26:11.418Z,98995.00
2022-10-11T08:28:38.354Z,99000.25
2022-10-11T08:31:05.079Z,99003.31
2022-10-11T08:33:31.791Z,99010.13
2022-10-11T08:35:58.930Z,99007.28
2022-10-11T08:38:25.635Z,99004.41
2022-10-11T08:40:55.629Z,99004.22
2022-10-11T08:43:43.995Z,98998.13
2022-10-11T08:46:13.034Z,98991.88
2022-10-11T08:48:46.352Z,98997.78
2022-10-11T08:51:45.283Z,98997.59
2022-10-11T08:54:26.069Z,98987.69
2022-10-11T08:56:52.831Z,98983.19
2022-10-11T08:59:45.758Z,98983.78
2022-10-11T09:02:25.301Z,98974.88
2022-10-11T09:04:54.718Z,98969.25
2022-10-11T09:07:30.418Z,98977.81
2022-10-11T09:10:11.564Z,98969.84
2022-10-11T09:12:56.987Z,98968.72
2022-10-11T09:15:29.057Z,98968.88
2022-10-11T09:18:10.444Z,98962.66
2022-10-11T09:21:03.330Z,98954.63
2022-10-11T09:23:50.953Z,98960.72
2022-10-11T09:26:25.656Z,98957.94
2022-10-11T09:29:21.407Z,98944.19
2022-10-11T09:31:56.784Z,98948.25
2022-10-11T09:34:27.355Z,98949.84
2022-10-11T09:37:11.352Z,98954.81
2022-10-11T09:39:45.759Z,98944.69
2022-10-11T09:42:12.679Z,98949.44
2022-10-11T09:44:45.361Z,98943.22
2022-10-11T09:47:16.772Z,98944.56
2022-10-11T09:50:14.129Z,98949.53
2022-10-11T09:52:55.431Z,98944.03
2022-10-11T09:55:33.826Z,98943.03
2022-10-11T09:58:01.254Z,98927.38
2022-10-11T10:00:33.466Z,98932.19
2022-10-11T10:03:03.264Z,98932.47
2022-10-11T10:05:36.725Z,98936.00
2022-10-11T10:08:23.894Z,98925.66
2022-10-11T10:11:02.605Z,98934.75
2022-10-11T10:13:52.068Z,98930.16
2022-10-11T10:16:23.676Z,98932.25
2022-10-11T10:18:55.337Z,98935.72
2022-10-11T10:21:36.042Z,98939.34
2022-10-11T10:24:20.589Z,98924.53
2022-10-11T10:27:06.108Z,98933.03
2022-10-11T10:29:33.070Z,98934.47
2022-10-11T10:32:14.257Z,98926.06
2022-10-11T10:35:21.386Z,98930.69
2022-10-11T10:38:12.126Z,98928.19
2022-10-11T10:40:53.806Z,98934.38
2022-10-11T10:43:24.004Z,98931.56
2022-10-11T10:46:11.984Z,98927.91
2022-10-11T10:52:03.111Z,98924.75
2022-10-11T10:54:52.486Z,98934.09
2022-10-11T10:57:27.725Z,98929.25
2022-10-11T11:00:15.680Z,98931.00
2022-10-11T11:03:06.536Z,98929.25
2022-10-11T11:05:45.643Z,98928.66
2022-10-11T11:08:21.129Z,98924.41
2022-10-11T11:10:59.097Z,98928.72
2022-10-11T11:13:54.175Z,98927.44
2022-10-11T11:16:38.209Z,98928.25
2022-10-11T11:19:26.988Z,98910.22
2022-10-11T11:22:03.609Z,98923.47
2022-10-11T11:24:57.471Z,98922.91
2022-10-11T11:27:45.502Z,98919.97
2022-10-11T11:30:20.042Z,98918.78
2022-10-11T11:33:03.651Z,98916.72
2022-10-11T11:35:36.019Z,98913.88
2022-10-11T11:38:14.326Z,98911.41
2022-10-11T11:40:45.457Z,98912.72
2022-10-11T11:43:28.149Z,98914.50
2022-10-11T11:46:05.027Z,98911.78
2022-10-11T11:48:31.953Z,98912.03
2022-10-11T11:51:37.329Z,98912.63
2022-10-11T11:54:42.267Z,98908.16
2022-10-11T11:57:24.200Z,98914.66
2022-10-11T11:59:59.846Z,98900.97
2022-10-11T12:02:29.337Z,98908.78
2022-10-11T12:04:57.204Z,98908.66
2022-10-11T12:07:25.501Z,98920.00
2022-10-11T12:09:55.244Z,98903.22
2022-10-11T12:12:33.084Z,98910.81
2022-10-11T12:15:17.796Z,98909.00
2022-10-11T12:17:56.451Z,98908.44
2022-10-11T12:20:28.951Z,98904.31
2022-10-11T12:23:00.040Z,98907.50
2022-10-11T12:25:26.734Z,98909.63
2022-10-11T12:27:55.950Z,98909.50
2022-10-11T12:30:44.454Z,98910.78
2022-10-11T12:33:45.265Z,98890.13
2022-10-11T12:36:40.773Z,98898.97
2022-10-11T12:39:19.851Z,98895.84
2022-10-11T12:41:53.501Z,98897.44
2022-10-11T12:44:28.762Z,98890.22
2022-10-11T12:46:55.477Z,98899.47
2022-10-11T12:49:35.495Z,98889.31
2022-10-11T12:52:15.986Z,98890.81
2022-10-11T12:55:03.844Z,98895.50
2022-10-11T12:57:33.170Z,98896.28
2022-10-11T13:00:26.282Z,98890.13
2022-10-11T13:02:52.978Z,98881.25
2022-10-11T13:05:22.267Z,98887.38
2022-10-11T13:07:50.068Z,98879.75
2022-10-11T13:10:26.047Z,98880.28
2022-10-11T13:12:54.189Z,98880.16
2022-10-11T13:15:22.949Z,98879.63
2022-10-11T13:17:52.779Z,98874.75
2022-10-11T13:20:24.649Z,98882.16
2022-10-11T13:22:53.743Z,98866.63
2022-10-11T13:25:23.557Z,98878.88
2022-10-11T13:27:53.492Z,98870.53
2022-10-11T13:30:28.403Z,98855.69
2022-10-11T13:32:56.168Z,98864.09
2022-10-11T13:35:35.208Z,98867.88
2022-10-11T13:38:02.749Z,98865.81
2022-10-11T13:40:30.850Z,98867.50
2022-10-11T13:42:58.789Z,98864.72
2022-10-11T13:45:28.147Z,98862.00
2022-10-11T13:47:55.220Z,98857.78
2022-10-11T13:50:32.225Z,98855.50
2022-10-11T13:53:10.669Z,98852.94
2022-10-11T13:55:53.440Z,98855.25
2022-10-11T13:58:27.310Z,98852.94
2022-10-11T14:00:57.650Z,98858.97
2022-10-11T14:03:40.514Z,98851.56
2022-10-11T14:06:07.918Z,98856.53
2022-10-11T14:08:46.636Z,98856.53
2022-10-11T14:11:14.851Z,98855.84
2022-10-11T14:13:47.263Z,98845.56
2022-10-11T14:16:19.799Z,98853.78
2022-10-11T14:18:52.258Z,98847.31
2022-10-11T14:21:45.346Z,98848.00
2022-10-11T14:24:13.086Z,98840.44
2022-10-11T14:26:43.637Z,98845.69
2022-10-11T14:29:31.185Z,98842.38
2022-10-11T14:32:30.731Z,98833.44
2022-10-11T14:34:58.277Z,98842.94
2022-10-11T14:37:25.644Z,98841.13
2022-10-11T14:39:52.440Z,98845.28
2022-10-11T14:42:19.249Z,98845.81
2022-10-11T14:44:45.887Z,98841.44
2022-10-11T14:47:17.357Z,98839.50
2022-10-11T14:49:45.306Z,98844.59
2022-10-11T14:52:13.441Z,98831.53
2022-10-11T14:54:40.888Z,98836.22
2022-10-11T14:57:10.845Z,98839.34
2022-10-11T14:59:38.255Z,98837.84
2022-10-11T15:02:07.404Z,98837.69
2022-10-11T15:04:34.111Z,98834.53
2022-10-11T15:07:00.943Z,98839.53
2022-10-11T15:09:27.834Z,98825.66
2022-10-11T15:11:55.795Z,98832.25
2022-10-11T15:14:23.802Z,98843.88
2022-10-11T15:16:50.584Z,98851.31
2022-10-11T15:19:22.983Z,98846.50
2022-10-11T15:21:50.059Z,98838.16
2022-10-11T15:24:20.142Z,98842.41
2022-10-11T15:26:47.489Z,98845.84
2022-10-11T15:29:16.401Z,98831.94
2022-10-11T15:31:43.221Z,98830.69
2022-10-11T15:34:11.141Z,98839.28
2022-10-11T15:36:38.125Z,98831.38
2022-10-11T15:39:22.407Z,98845.84
2022-10-11T15:41:49.214Z,98847.84
2022-10-11T15:44:16.033Z,98852.13
2022-10-11T15:46:43.803Z,98841.22
2022-10-11T15:49:13.895Z,98851.75
2022-10-11T15:51:40.589Z,98846.09
2022-10-11T15:54:07.357Z,98844.94
2022-10-11T15:56:34.104Z,98853.81
2022-10-11T15:59:00.731Z,98847.22
2022-10-11T16:01:27.582Z,98841.38
2022-10-11T16:03:54.215Z,98842.22
2022-10-11T16:06:20.883Z,98845.91
2022-10-11T16:08:48.030Z,98842.88
2022-10-11T16:11:15.020Z,98842.41
2022-10-11T16:13:41.660Z,98847.59
2022-10-11T16:16:09.629Z,98838.75
2022-10-11T16:18:36.630Z,98848.34
2022-10-11T16:21:08.415Z,98851.88
2022-10-11T16:23:35.550Z,98852.25
2022-10-11T16:26:05.817Z,98850.97
2022-10-11T16:28:33.438Z,98847.53
2022-10-11T16:31:00.695Z,98861.47
2022-10-11T16:33:27.774Z,98864.63
2022-10-11T16:36:14.300Z,98865.34
2022-10-11T16:38:41.424Z,98861.81
2022-10-11T16:41:07.971Z,98872.91
2022-10-11T16:43:35.431Z,98884.72
2022-10-11T16:46:02.549Z,98876.69
2022-10-11T16:48:29.524Z,98880.69
2022-10-11T16:51:05.457Z,98877.38
2022-10-11T16:53:34.263Z,98887.44
2022-10-11T16:56:04.296Z,98873.97
2022-10-11T16:58:31.250Z,98892.63
2022-10-11T17:00:57.886Z,98889.78
2022-10-11T17:03:24.635Z,98894.72
2022-10-11T17:05:51.278Z,98898.50
2022-10-11T17:08:18.221Z,98898.25
2022-10-11T17:10:47.300Z,98904.50
2022-10-11T17:13:14.137Z,98903.44
2022-10-11T17:15:40.744Z,98904.88
2022-10-11T17:18:07.691Z,98911.94
2022-10-11T17:20:34.911Z,98907.81
2022-10-11T17:23:01.600Z,98912.88
2022-10-11T17:25:28.271Z,98908.03
2022-10-11T17:27:56.186Z,98918.63
2022-10-11T17:30:24.076Z,98916.25
2022-10-11T17:32:51.850Z,98914.81
2022-10-11T17:35:19.089Z,98917.41
2022-10-11T17:37:45.768Z,98927.09
2022-10-11T17:40:12.494Z,98922.94
2022-10-11T17:42:39.141Z,98922.59
2022-10-11T17:45:06.196Z,98930.84
2022-10-11T17:47:33.443Z,98936.25
2022-10-11T17:50:00.010Z,98932.84
2022-10-11T17:52:26.644Z,98933.91
2022-10-11T17:54:53.210Z,98933.16
2022-10-11T17:57:20.392Z,98938.47
2022-10-11T17:59:47.107Z,98930.56
2022-10-11T18:02:14.626Z,98934.22
2022-10-11T18:04:41.277Z,98941.19
2022-10-11T18:07:08.011Z,98941.78
2022-10-11T18:09:34.953Z,98947.53
2022-10-11T18:12:01.619Z,98953.75
2022-10-11T18:14:28.180Z,98943.00
2022-10-11T18:16:54.838Z,98950.16
2022-10-11T18:19:21.504Z,98935.16
2022-10-11T18:21:48.100Z,98943.75
2022-10-11T18:24:16.659Z,98943.16
2022-10-11T18:26:45.006Z,98946.28
2022-10-11T18:29:13.082Z,98946.63
2022-10-11T18:31:40.850Z,98948.19
2022-10-11T18:34:10.704Z,98948.06
2022-10-11T18:36:38.104Z,98948.88
2022-10-11T18:39:07.166Z,98951.28
2022-10-11T18:41:35.637Z,98956.69
2022-10-11T18:44:05.480Z,98956.59
2022-10-11T18:46:32.635Z,98948.22
2022-10-11T18:49:01.956Z,98957.31
2022-10-11T18:51:31.357Z,98964.13
2022-10-11T18:53:58.840Z,98960.72
2022-10-11T18:56:26.898Z,98974.50
2022-10-11T18:58:55.608Z,98967.34
2022-10-11T19:01:28.314Z,98969.66
2022-10-11T19:03:57.315Z,98977.66
2022-10-11T19:06:33.170Z,98973.50
2022-10-11T19:09:05.596Z,98972.81
2022-10-11T19:11:33.079Z,98976.91
2022-10-11T19:14:08.798Z,98974.44
2022-10-11T19:16:38.094Z,98979.72
2022-10-11T19:19:05.250Z,98983.25
2022-10-11T19:21:32.511Z,98981.09
2022-10-11T19:23:59.183Z,98983.28
2022-10-11T19:26:38.212Z,98987.00
2022-10-11T19:29:19.839Z,98979.06
2022-10-11T19:31:52.885Z,98989.00
2022-10-11T19:34:20.571Z,98978.22
2022-10-11T19:36:50.014Z,98979.16
2022-10-11T19:39:18.320Z,98978.88
2022-10-11T19:41:45.722Z,98976.88
2022-10-11T19:44:13.406Z,98985.28
2022-10-11T19:46:55.955Z,98990.56
2022-10-11T19:49:25.224Z,98992.63
2022-10-11T19:51:55.766Z,98998.72
2022-10-11T19:54:23.090Z,98993.56
2022-10-11T19:56:49.750Z,98998.22
2022-10-11T19:59:17.451Z,99005.38
2022-10-11T20:01:49.351Z,99007.94
2022-10-11T20:04:39.529Z,99012.31
2022-10-11T20:07:04.798Z,99004.94
2022-10-11T20:09:31.431Z,99011.28
2022-10-11T20:11:58.870Z,99004.25
2022-10-11T20:14:25.733Z,99011.69
2022-10-11T20:16:52.930Z,99007.66
2022-10-11T20:19:20.020Z,99012.31
2022-10-11T20:21:47.806Z,99022.25
2022-10-11T20:24:14.515Z,99017.50
2022-10-11T20:26:41.135Z,99004.75
2022-10-11T20:29:07.755Z,99020.38
2022-10-11T20:31:38.301Z,99029.59
2022-10-11T20:34:07.126Z,99033.63
2022-10-11T20:36:35.927Z,99033.13
2022-10-11T20:39:04.058Z,99038.88
2022-10-11T20:41:34.315Z,99035.56
2022-10-11T20:44:02.012Z,99043.41
2022-10-11T20:46:31.540Z,99044.97
2022-10-11T20:49:03.789Z,99041.78
2022-10-11T20:51:32.515Z,99037.63
2022-10-11T20:54:00.669Z,99050.34
2022-10-11T20:56:28.298Z,99046.84
2022-10-11T20:58:57.091Z,99048.59
2022-10-11T21:01:29.524Z,99045.50
2022-10-11T21:04:01.250Z,99054.81
2022-10-11T21:06:28.893Z,99062.38
2022-10-11T21:08:56.445Z,99063.59
2022-10-11T21:11:27.769Z,99047.31
2022-10-11T21:13:59.724Z,99055.72
2022-10-11T21:16:27.445Z,99062.09
2022-10-11T21:18:55.904Z,99059.22
2022-10-11T21:21:23.944Z,99057.75
2022-10-11T21:23:54.140Z,99055.38
2022-10-11T21:26:20.814Z,99049.19
2022-10-11T21:28:47.565Z,99053.09
2022-10-11T21:31:17.328Z,99063.78
2022-10-11T21:33:45.204Z,99048.72
2022-10-11T21:36:17.392Z,99057.50
2022-10-11T21:38:44.326Z,99045.91
2022-10-11T21:41:17.110Z,99047.28
2022-10-11T21:43:44.462Z,99053.91
2022-10-11T21:46:17.650Z,99056.78
2022-10-11T21:48:44.570Z,99056.06
2022-10-11T21:51:31.022Z,99052.94
2022-10-11T21:54:00.419Z,99059.69
2022-10-11T21:56:28.456Z,99048.28
2022-10-11T21:58:55.900Z,99053.47
2022-10-11T22:01:22.977Z,99047.78
2022-10-11T22:03:50.265Z,99044.34
2022-10-11T22:06:17.107Z,99046.84
2022-10-11T22:08:43.896Z,99039.41
2022-10-11T22:11:11.228Z,99044.34
2022-10-11T22:13:38.302Z,99044.66
2022-10-11T22:16:06.654Z,99043.81
2022-10-11T22:18:33.912Z,99042.81
2022-10-11T22:21:08.425Z,99038.44
2022-10-11T22:23:35.773Z,99039.09
2022-10-11T22:26:26.980Z,99045.19
2022-10-11T22:28:53.737Z,99035.97
2022-10-11T22:31:21.694Z,99032.41
2022-10-11T22:33:49.239Z,99026.41
2022-10-11T22:36:19.335Z,99018.84
2022-10-11T22:38:46.895Z,99034.50
2022-10-11T22:41:13.763Z,99034.31
2022-10-11T22:43:40.552Z,99037.09
2022-10-11T22:46:08.083Z,99018.84
2022-10-11T22:48:35.468Z,99035.53
2022-10-11T22:51:02.510Z,99034.81
2022-10-11T22:53:29.611Z,99035.28
2022-10-11T22:55:56.526Z,99036.22
2022-10-11T22:58:23.143Z,99032.06
2022-10-11T23:00:49.756Z,99023.47
2022-10-11T23:03:17.480Z,99034.47
2022-10-11T23:05:44.110Z,99030.97
2022-10-11T23:08:10.782Z,99047.38
2022-10-11T23:10:40.450Z,99043.63
2022-10-11T23:13:07.388Z,99046.22
2022-10-11T23:15:33.969Z,99051.91
2022-10-11T23:18:00.613Z,99049.22
2022-10-11T23:20:27.282Z,99038.38
2022-10-11T23:22:53.880Z,99049.72
2022-10-11T23:25:20.496Z,99046.31
2022-10-11T23:27:47.090Z,99048.81
2022-10-11T23:30:14.062Z,99042.88
2022-10-11T23:32:40.760Z,99046.22
2022-10-11T23:35:07.796Z,99040.41
2022-10-11T23:37:34.617Z,99048.81
2022-10-11T23:40:01.528Z,99053.88
2022-10-11T23:42:28.178Z,99057.06
2022-10-11T23:44:54.712Z,99050.78
2022-10-11T23:47:21.395Z,99052.66
2022-10-11T23:49:48.029Z,99056.16
2022-10-11T23:52:14.754Z,99056.16
2022-10-11T23:54:41.431Z,99055.03
2022-10-11T23:57:08.226Z,99048.94
2022-10-11T23:59:34.769Z,99049.56
